Time;durP1;ratioP1;P1;durP2;ratioP2;P2;SDS_P1;SDS_P2;PMS_P1;PMS_P2;Temp;Humidity;BMP_temperature;BMP_pressure;BME280_temperature;BME280_humidity;BME280_pressure;Samples;Min_cycle;Max_cycle;Signal;HPM_P1;HPM_P2
2022/02/02 00:00:33;;;;;;;5.82;1.42;;;3.80;99.90;;;;;;5029814;28;20053;-93
2022/02/02 00:03:06;;;;;;;9.93;1.30;;;3.90;99.90;;;;;;5029398;28;20132;-93
2022/02/02 00:05:48;;;;;;;9.30;1.17;;;3.90;99.90;;;;;;5030042;28;20397;-92
2022/02/02 00:11:20;;;;;;;8.23;1.40;;;3.90;99.90;;;;;;5014681;28;20056;-93
2022/02/02 00:16:37;;;;;;;11.40;1.63;;;4.00;99.90;;;;;;5013667;28;20132;-93
2022/02/02 00:19:14;;;;;;;8.10;1.20;;;4.00;99.90;;;;;;5028976;28;20095;-92
2022/02/02 00:21:46;;;;;;;9.80;1.73;;;4.00;99.90;;;;;;5029791;28;20053;-92
2022/02/02 00:24:25;;;;;;;8.60;1.63;;;4.00;99.90;;;;;;5029630;28;20056;-93
2022/02/02 00:26:55;;;;;;;10.27;1.70;;;4.00;99.90;;;;;;5029093;28;20144;-92
2022/02/02 00:29:29;;;;;;;10.55;2.22;;;4.10;99.90;;;;;;5028489;28;20053;-92
2022/02/02 00:32:04;;;;;;;;;;;4.10;99.90;;;;;;5029158;28;20050;-93
2022/02/02 00:34:32;;;;;;;10.88;2.22;;;4.10;99.90;;;;;;5029135;28;20293;-93
2022/02/02 00:36:59;;;;;;;7.40;1.20;;;4.10;99.90;;;;;;5028825;28;20080;-91
2022/02/02 00:39:28;;;;;;;6.82;1.13;;;4.10;99.90;;;;;;5029398;28;20528;-93
2022/02/02 00:41:56;;;;;;;5.60;1.25;;;4.10;99.90;;;;;;5029072;28;20509;-92
2022/02/02 00:44:25;;;;;;;7.85;1.65;;;4.20;99.90;;;;;;5033090;28;20081;-92
2022/02/02 00:46:53;;;;;;;6.82;1.30;;;4.20;99.90;;;;;;5033521;28;20050;-92
2022/02/02 00:49:20;;;;;;;7.43;1.10;;;4.20;99.90;;;;;;5032910;28;20132;-92
2022/02/02 00:51:49;;;;;;;4.15;1.50;;;4.20;99.90;;;;;;5033067;28;20068;-93
2022/02/02 00:54:22;;;;;;;3.05;1.10;;;4.20;99.90;;;;;;5033459;28;20540;-92
2022/02/02 00:56:49;;;;;;;5.25;1.42;;;4.20;99.90;;;;;;5033182;28;20084;-92
2022/02/02 00:59:17;;;;;;;8.35;1.35;;;4.20;99.90;;;;;;5032321;28;20104;-92
2022/02/02 01:01:44;;;;;;;4.72;1.25;;;4.20;99.90;;;;;;5033128;28;20060;-91
2022/02/02 01:04:16;;;;;;;12.18;1.73;;;4.30;99.90;;;;;;5032044;28;20089;-92
2022/02/02 01:06:46;;;;;;;8.05;0.82;;;4.30;99.90;;;;;;5032835;28;20056;-93
2022/02/02 01:09:26;;;;;;;10.13;1.17;;;4.30;99.90;;;;;;5032105;28;20049;-91
2022/02/02 01:12:18;;;;;;;7.30;1.10;;;4.30;99.90;;;;;;5031904;28;20391;-91
2022/02/02 01:15:30;;;;;;;4.00;0.90;;;4.20;99.90;;;;;;5016332;28;20075;-92
2022/02/02 01:18:14;;;;;;;7.35;1.17;;;4.10;99.90;;;;;;5016274;28;20056;-92
2022/02/02 01:28:41;;;;;;;13.93;1.67;;;3.90;99.90;;;;;;5016608;28;20058;-92
2022/02/02 01:31:12;;;;;;;11.45;1.80;;;3.90;99.90;;;;;;5031531;28;20603;-90
2022/02/02 01:33:39;;;;;;;6.72;1.48;;;3.90;99.90;;;;;;5030739;28;20053;-91
2022/02/02 01:36:06;;;;;;;11.70;1.80;;;3.90;99.90;;;;;;5032911;28;20554;-93
2022/02/02 01:38:35;;;;;;;9.93;1.65;;;3.90;99.90;;;;;;5031435;28;20134;-93
2022/02/02 01:41:08;;;;;;;14.27;2.03;;;4.00;99.90;;;;;;5031399;28;20060;-91
2022/02/02 01:43:42;;;;;;;12.40;1.88;;;4.00;99.90;;;;;;5030948;28;20550;-93
2022/02/02 01:46:14;;;;;;;10.18;1.58;;;4.00;99.90;;;;;;5031464;28;20104;-92
2022/02/02 01:48:57;;;;;;;20.63;2.03;;;4.10;99.90;;;;;;5031848;28;20064;-90
2022/02/02 01:54:53;;;;;;;13.05;1.90;;;4.20;99.90;;;;;;5016104;28;20052;-91
2022/02/02 01:56:38;;;;;;;12.88;2.03;;;4.20;99.90;;;;;;5005751;28;20076;-91
2022/02/02 02:01:34;;;;;;;16.23;2.40;;;4.10;99.90;;;;;;5016592;28;20391;-92
2022/02/02 02:04:01;;;;;;;9.85;2.10;;;4.00;99.90;;;;;;5030965;28;20395;-92
2022/02/02 02:06:27;;;;;;;12.50;2.10;;;4.10;99.90;;;;;;5031759;28;20482;-92
2022/02/02 02:08:54;;;;;;;14.73;2.63;;;4.10;99.90;;;;;;5030511;28;20077;-91
2022/02/02 02:11:22;;;;;;;14.45;2.80;;;4.20;99.90;;;;;;5031025;28;20417;-91
2022/02/02 02:14:27;;;;;;;16.13;1.90;;;4.20;99.90;;;;;;5030464;28;20064;-91
2022/02/02 02:16:40;;;;;;;19.33;3.10;;;4.20;99.90;;;;;;5024786;28;20145;-89
2022/02/02 02:19:06;;;;;;;12.13;2.20;;;4.20;99.90;;;;;;5033191;28;20490;-90
2022/02/02 02:21:33;;;;;;;14.35;2.20;;;4.20;99.90;;;;;;5031804;28;20409;-91
2022/02/02 02:24:01;;;;;;;12.85;3.50;;;4.30;99.90;;;;;;5031106;28;20100;-90
2022/02/02 02:26:29;;;;;;;13.35;2.75;;;4.30;99.90;;;;;;5031821;28;20129;-91
2022/02/02 02:29:21;;;;;;;13.32;2.03;;;4.20;99.90;;;;;;5030622;28;20054;-91
2022/02/02 02:39:59;;;;;;;17.80;2.30;;;4.10;99.90;;;;;;4955279;29;20051;-91
2022/02/02 02:56:28;;;;;;;12.57;2.40;;;4.20;99.90;;;;;;4962137;28;20057;-89
2022/02/02 02:59:04;;;;;;;15.50;2.83;;;4.30;99.90;;;;;;5030850;28;20509;-90
2022/02/02 03:49:15;;;;;;;13.95;2.38;;;4.20;99.90;;;;;;5013647;28;20085;-89
2022/02/02 03:59:04;;;;;;;12.13;1.67;;;4.50;99.90;;;;;;5013255;28;20053;-89
2022/02/02 04:04:40;;;;;;;12.93;2.20;;;4.60;99.90;;;;;;5013756;28;20546;-88
2022/02/02 04:07:16;;;;;;;11.13;2.17;;;4.60;99.90;;;;;;5035406;28;20384;-87
2022/02/02 04:09:43;;;;;;;20.05;2.30;;;4.60;99.90;;;;;;5029799;28;20050;-89
2022/02/02 04:55:56;;;;;;;14.35;2.65;;;4.40;99.90;;;;;;5012235;28;20046;-87
2022/02/02 05:01:36;;;;;;;19.35;3.45;;;4.30;99.90;;;;;;5012586;28;20050;-88
2022/02/02 05:04:01;;;;;;;23.50;4.05;;;4.20;99.90;;;;;;5012191;28;20129;-88
2022/02/02 05:06:44;;;;;;;16.50;2.25;;;4.20;99.90;;;;;;5027243;28;20049;-87
2022/02/02 05:15:37;;;;;;;10.10;3.15;;;4.40;99.90;;;;;;5011624;28;20570;-88
2022/02/02 05:20:14;;;;;;;11.35;1.83;;;4.60;99.90;;;;;;5012044;28;20053;-87
2022/02/02 05:29:21;;;;;;;6.50;1.70;;;4.70;99.90;;;;;;5013176;28;20052;-87
2022/02/02 05:42:30;;;;;;;12.57;2.40;;;4.80;99.90;;;;;;5016087;28;20431;-87
2022/02/02 05:44:59;;;;;;;11.20;2.20;;;4.80;99.90;;;;;;5016021;28;20520;-89
2022/02/02 05:52:37;;;;;;;13.50;2.03;;;4.80;99.90;;;;;;5016542;28;20049;-88
2022/02/02 05:55:04;;;;;;;7.80;2.38;;;4.80;99.90;;;;;;5031205;28;20110;-88
2022/02/02 05:57:32;;;;;;;13.23;2.47;;;4.90;99.90;;;;;;5032033;28;20045;-88
2022/02/02 05:59:59;;;;;;;12.07;2.50;;;4.90;99.90;;;;;;5030887;28;20068;-88
2022/02/02 06:02:32;;;;;;;6.32;1.48;;;4.90;99.90;;;;;;5030837;28;20079;-87
2022/02/02 06:05:07;;;;;;;8.93;1.38;;;5.00;99.90;;;;;;5031438;28;20049;-87
2022/02/02 06:07:36;;;;;;;11.30;2.00;;;5.00;99.90;;;;;;5031477;28;20060;-88
2022/02/02 06:10:06;;;;;;;11.38;1.90;;;5.00;99.90;;;;;;5031488;28;20050;-88
2022/02/02 06:12:33;;;;;;;6.32;1.58;;;4.90;99.90;;;;;;5030669;28;20141;-88
2022/02/02 06:15:08;;;;;;;6.55;1.52;;;4.90;99.90;;;;;;5029599;28;20081;-87
2022/02/02 06:17:40;;;;;;;8.25;1.48;;;4.80;99.90;;;;;;5031256;28;20499;-88
2022/02/02 06:20:08;;;;;;;4.53;1.17;;;4.80;99.90;;;;;;5030721;28;20509;-89
2022/02/02 06:23:04;;;;;;;9.07;1.50;;;4.80;99.90;;;;;;5031674;28;20046;-87
2022/02/02 06:25:32;;;;;;;7.80;1.48;;;4.80;99.90;;;;;;4999616;28;20132;-87
2022/02/02 06:28:04;;;;;;;12.30;1.48;;;4.60;99.90;;;;;;5031023;28;20501;-87
2022/02/02 06:30:33;;;;;;;14.45;4.13;;;4.50;99.90;;;;;;5030900;28;20050;-89
2022/02/02 06:33:05;;;;;;;6.65;1.30;;;4.50;99.90;;;;;;5030686;28;20104;-87
2022/02/02 06:35:33;;;;;;;15.48;1.70;;;4.60;99.90;;;;;;5015747;28;20457;-87
2022/02/02 06:38:00;;;;;;;6.95;1.33;;;4.60;99.90;;;;;;5031288;28;20128;-87
2022/02/02 06:40:33;;;;;;;7.22;1.58;;;4.70;99.90;;;;;;5029016;28;20112;-88
2022/02/02 06:43:03;;;;;;;9.52;1.77;;;4.80;99.90;;;;;;5029938;28;20052;-88
2022/02/02 06:45:30;;;;;;;6.95;1.50;;;4.90;99.90;;;;;;5030946;28;20077;-87
2022/02/02 06:47:57;;;;;;;6.32;1.45;;;4.90;99.90;;;;;;5031073;28;20049;-89
2022/02/02 06:50:28;;;;;;;4.78;1.38;;;4.80;99.90;;;;;;5031059;28;20054;-87
2022/02/02 06:53:26;;;;;;;7.75;1.23;;;4.90;99.90;;;;;;5030914;28;20405;-87
2022/02/02 06:56:19;;;;;;;5.90;1.40;;;4.90;99.90;;;;;;5015269;28;20058;-87
2022/02/02 07:02:24;;;;;;;9.65;1.55;;;4.90;99.90;;;;;;5015126;28;20045;-87
2022/02/02 07:05:19;;;;;;;4.80;1.00;;;4.90;99.90;;;;;;5030511;28;20583;-88
2022/02/02 07:08:19;;;;;;;9.65;1.13;;;4.90;99.90;;;;;;5029621;28;20050;-90
2022/02/02 07:16:17;;;;;;;11.07;1.58;;;4.90;99.90;;;;;;5015051;28;20553;-88
2022/02/02 07:19:01;;;;;;;7.05;2.20;;;4.90;99.90;;;;;;5030298;28;20088;-87
2022/02/02 07:27:24;;;;;;;5.53;1.13;;;5.10;99.90;;;;;;5014860;28;20052;-89
2022/02/02 07:30:13;;;;;;;3.22;0.80;;;5.10;99.90;;;;;;5014717;28;20133;-87
2022/02/02 07:32:45;;;;;;;11.35;1.38;;;5.20;99.90;;;;;;5030010;28;20071;-88
2022/02/02 07:35:24;;;;;;;9.25;1.77;;;5.00;99.90;;;;;;5029795;28;20409;-87
2022/02/02 07:38:12;;;;;;;7.38;1.38;;;5.10;99.90;;;;;;5029968;28;20136;-87
2022/02/02 07:40:45;;;;;;;5.30;1.38;;;5.20;99.90;;;;;;5029561;28;20141;-87
2022/02/02 07:43:25;;;;;;;7.72;1.50;;;5.20;99.90;;;;;;5029806;28;20050;-87
2022/02/02 07:46:01;;;;;;;12.38;1.63;;;5.10;99.90;;;;;;5014067;28;20137;-87
2022/02/02 07:48:33;;;;;;;5.47;1.40;;;5.10;99.90;;;;;;5029602;28;20129;-90
2022/02/02 07:51:02;;;;;;;5.03;1.15;;;5.10;99.90;;;;;;5028420;28;20046;-87
2022/02/02 07:53:36;;;;;;;6.78;1.08;;;5.10;99.90;;;;;;5028938;28;20085;-90
2022/02/02 07:56:28;;;;;;;8.75;1.70;;;5.10;99.90;;;;;;5026951;28;20119;-88
2022/02/02 07:59:14;;;;;;;9.02;1.40;;;5.00;99.90;;;;;;5029700;28;20136;-88
2022/02/02 08:01:43;;;;;;;6.63;1.60;;;5.00;99.90;;;;;;5029386;28;20046;-87
2022/02/02 08:04:10;;;;;;;6.93;1.30;;;5.00;99.90;;;;;;5029106;28;20105;-87
2022/02/02 08:06:40;;;;;;;8.75;1.65;;;5.00;99.90;;;;;;5029166;28;20046;-88
2022/02/02 08:09:09;;;;;;;5.50;1.08;;;5.00;99.90;;;;;;5026629;28;20056;-89
2022/02/02 08:11:38;;;;;;;7.40;1.60;;;5.00;99.90;;;;;;5029041;28;20045;-87
2022/02/02 08:14:27;;;;;;;8.70;1.80;;;5.00;99.90;;;;;;5025609;28;20041;-88
2022/02/02 08:16:54;;;;;;;8.07;1.48;;;4.90;99.90;;;;;;5028792;28;20052;-87
2022/02/02 08:19:22;;;;;;;6.50;1.75;;;5.00;99.90;;;;;;5028938;28;21123;-87
2022/02/02 08:21:49;;;;;;;10.57;1.58;;;5.20;99.90;;;;;;5009830;28;20046;-87
2022/02/02 08:24:18;;;;;;;7.80;1.35;;;5.30;99.90;;;;;;5028727;28;20054;-87
2022/02/02 08:26:45;;;;;;;11.68;2.05;;;5.40;99.90;;;;;;5028563;28;20078;-88
2022/02/02 08:29:12;;;;;;;8.57;1.80;;;5.60;99.90;;;;;;5028944;28;20128;-88
2022/02/02 08:31:39;;;;;;;15.82;2.55;;;5.60;99.90;;;;;;5029480;28;20050;-88
2022/02/02 08:34:11;;;;;;;10.38;2.30;;;5.70;99.90;;;;;;5013356;28;20053;-89
2022/02/02 08:36:46;;;;;;;7.30;1.80;;;5.50;99.90;;;;;;5028608;28;20062;-88
2022/02/02 08:39:49;;;;;;;11.55;1.92;;;5.60;99.90;;;;;;5029119;28;20144;-88
2022/02/02 08:42:16;;;;;;;7.68;2.05;;;5.60;99.90;;;;;;5013820;28;20478;-88
2022/02/02 08:44:50;;;;;;;11.10;2.10;;;5.60;99.90;;;;;;5029177;28;20060;-88
2022/02/02 08:47:20;;;;;;;12.60;2.55;;;5.70;99.90;;;;;;5013871;28;20053;-88
2022/02/02 08:49:56;;;;;;;10.48;2.05;;;5.70;99.90;;;;;;5029493;28;20054;-88
2022/02/02 08:52:32;;;;;;;13.55;2.42;;;5.70;99.90;;;;;;5029226;28;20045;-88
2022/02/02 08:55:25;;;;;;;8.90;2.58;;;5.60;99.90;;;;;;5031552;28;20050;-89
2022/02/02 08:58:08;;;;;;;8.57;1.83;;;5.60;99.90;;;;;;5034698;28;20050;-91
2022/02/02 09:00:35;;;;;;;9.02;2.20;;;5.50;99.90;;;;;;5035292;28;20096;-88
2022/02/02 09:05:48;;;;;;;12.32;2.00;;;5.60;99.90;;;;;;5022421;28;20501;-88
2022/02/02 09:08:19;;;;;;;8.55;1.50;;;5.60;99.90;;;;;;5035852;28;20054;-87
2022/02/02 09:22:46;;;;;;;8.85;1.83;;;5.70;99.90;;;;;;5022064;28;20085;-87
2022/02/02 09:33:18;;;;;;;14.10;2.05;;;6.00;99.90;;;;;;5021032;28;20053;-89
2022/02/02 09:35:42;;;;;;;8.23;2.17;;;6.10;99.90;;;;;;5023259;28;20049;-88
2022/02/02 09:38:09;;;;;;;10.73;1.73;;;6.20;99.90;;;;;;5037148;28;20410;-88
2022/02/02 09:41:14;;;;;;;12.95;2.03;;;6.30;99.90;;;;;;5019583;28;20096;-87
2022/02/02 09:43:27;;;;;;;9.32;1.95;;;6.30;99.90;;;;;;5021330;28;20045;-87
2022/02/02 09:46:01;;;;;;;15.32;2.47;;;6.40;99.90;;;;;;5018306;28;20552;-88
2022/02/02 09:48:33;;;;;;;9.27;2.10;;;6.90;99.90;;;;;;5036301;28;20403;-88
2022/02/02 09:51:08;;;;;;;16.95;2.17;;;7.10;99.90;;;;;;5034272;28;20056;-88
2022/02/02 09:56:22;;;;;;;16.05;3.88;;;6.90;99.90;;;;;;5017529;28;20056;-89
2022/02/02 10:05:00;;;;;;;28.05;7.70;;;6.60;99.90;;;;;;5022624;28;20053;-88
2022/02/02 10:07:52;;;;;;;16.10;2.80;;;6.40;99.90;;;;;;5022250;28;20092;-88
2022/02/02 10:13:17;;;;;;;10.27;2.00;;;6.20;99.90;;;;;;5023927;28;20065;-88
2022/02/02 10:15:56;;;;;;;9.05;1.77;;;6.20;99.90;;;;;;5036486;28;20483;-87
2022/02/02 10:18:29;;;;;;;12.02;3.58;;;6.30;99.90;;;;;;5034945;28;20053;-88
2022/02/02 10:20:57;;;;;;;11.48;1.80;;;6.00;99.90;;;;;;5013368;28;20056;-88
2022/02/02 10:23:28;;;;;;;13.60;2.72;;;5.90;99.90;;;;;;5031294;28;20057;-91
2022/02/02 10:25:59;;;;;;;12.32;1.70;;;5.90;99.90;;;;;;5031350;28;20133;-88
2022/02/02 10:28:30;;;;;;;11.05;2.03;;;5.90;99.90;;;;;;5031479;28;20058;-88
2022/02/02 10:31:05;;;;;;;11.60;2.13;;;6.00;99.90;;;;;;5031340;28;20046;-88
2022/02/02 10:33:34;;;;;;;17.92;2.60;;;6.00;99.90;;;;;;5030847;28;20137;-87
2022/02/02 10:36:20;;;;;;;9.45;2.22;;;6.10;99.90;;;;;;5030618;28;20100;-88
2022/02/02 10:39:04;;;;;;;15.95;3.63;;;6.20;99.90;;;;;;5031043;28;20061;-89
2022/02/02 10:41:54;;;;;;;12.23;2.20;;;6.30;99.90;;;;;;5031302;28;20050;-88
2022/02/02 10:44:32;;;;;;;13.43;2.15;;;6.30;99.90;;;;;;5031066;28;20049;-89
2022/02/02 10:47:23;;;;;;;13.15;3.15;;;6.40;99.90;;;;;;5030776;28;20054;-88
2022/02/02 11:06:41;;;;;;;11.52;2.58;;;6.50;99.90;;;;;;5015213;28;20046;-87
2022/02/02 11:09:14;;;;;;;12.93;2.50;;;6.40;99.90;;;;;;5030378;28;20140;-88
2022/02/02 11:11:43;;;;;;;15.65;2.70;;;6.60;99.90;;;;;;5030721;28;20049;-90
2022/02/02 11:14:41;;;;;;;11.95;2.03;;;6.80;99.90;;;;;;5014872;28;20068;-89
2022/02/02 11:17:19;;;;;;;12.57;2.17;;;6.90;99.90;;;;;;5014863;28;20179;-88
2022/02/02 11:19:50;;;;;;;10.40;1.65;;;7.10;99.90;;;;;;5030510;28;20417;-87
2022/02/02 11:22:32;;;;;;;7.90;1.90;;;7.70;99.90;;;;;;5030223;28;20111;-88
2022/02/02 11:25:22;;;;;;;9.48;2.15;;;8.60;99.90;;;;;;5030173;28;20091;-89
2022/02/02 11:27:51;;;;;;;11.73;2.30;;;9.90;99.90;;;;;;5013375;28;20054;-88
2022/02/02 11:30:24;;;;;;;7.90;1.95;;;9.70;99.90;;;;;;5029961;28;20060;-89
2022/02/02 11:33:01;;;;;;;13.27;2.08;;;9.40;99.90;;;;;;5029240;28;20396;-87
2022/02/02 11:38:25;;;;;;;13.68;2.08;;;8.20;99.90;;;;;;5014503;28;20072;-87
2022/02/02 11:41:09;;;;;;;7.57;2.25;;;7.40;99.90;;;;;;5029608;28;20137;-87
2022/02/02 11:50:01;;;;;;;17.90;2.20;;;6.80;99.90;;;;;;5014437;28;20141;-89
2022/02/02 11:52:31;;;;;;;9.80;2.55;;;6.90;99.90;;;;;;5029440;28;20152;-88
2022/02/02 11:54:58;;;;;;;11.95;2.63;;;6.70;99.90;;;;;;5013746;28;20053;-90
2022/02/02 11:57:34;;;;;;;10.65;2.45;;;6.50;99.90;;;;;;5029305;28;20041;-87
2022/02/02 12:03:15;;;;;;;12.82;2.35;;;6.70;99.90;;;;;;5014328;28;20085;-87
2022/02/02 12:06:02;;;;;;;12.45;1.98;;;6.70;99.90;;;;;;5013776;28;20052;-89
2022/02/02 12:08:47;;;;;;;10.82;2.17;;;6.50;99.90;;;;;;5014368;28;20046;-87
2022/02/02 12:20:20;;;;;;;9.45;1.63;;;7.70;99.90;;;;;;5013981;28;20053;-88
2022/02/02 12:58:28;;;;;;;4.85;1.02;;;6.60;99.90;;;;;;4990328;28;20041;-87
2022/02/02 13:01:08;;;;;;;;;;;7.20;99.90;;;;;;5029188;28;20137;-90
2022/02/02 13:03:41;;;;;;;3.28;1.17;;;7.80;99.90;;;;;;5011160;28;19925;-87
2022/02/02 13:06:15;;;;;;;7.90;1.70;;;8.30;99.90;;;;;;5027947;28;20054;-87
2022/02/02 13:08:43;;;;;;;8.13;1.10;;;8.20;99.90;;;;;;5027742;28;20053;-86
2022/02/02 13:11:10;;;;;;;11.10;1.63;;;7.80;99.90;;;;;;5027998;28;20042;-88
2022/02/02 13:13:36;;;;;;;5.35;1.40;;;7.40;99.90;;;;;;5028485;28;20050;-88
2022/02/02 13:16:19;;;;;;;6.10;1.92;;;7.10;99.90;;;;;;5027246;28;20052;-88
2022/02/02 13:18:50;;;;;;;7.90;1.55;;;7.10;99.90;;;;;;5012258;28;20046;-88
2022/02/02 13:21:27;;;;;;;9.82;1.45;;;7.00;99.90;;;;;;5027715;28;20052;-88
2022/02/02 13:24:03;;;;;;;5.88;1.25;;;7.10;99.90;;;;;;5028788;28;20049;-88
2022/02/02 13:26:37;;;;;;;9.63;1.75;;;7.00;99.90;;;;;;5027445;28;20137;-88
2022/02/02 13:29:21;;;;;;;4.18;1.48;;;6.80;99.90;;;;;;5027927;28;20045;-87
2022/02/02 13:37:35;;;;;;;7.60;1.30;;;6.20;99.90;;;;;;5011725;28;20070;-88
2022/02/02 13:45:47;;;;;;;7.38;1.70;;;6.90;99.90;;;;;;5012425;28;20041;-87
2022/02/02 13:59:36;;;;;;;8.75;1.30;;;9.20;99.90;;;;;;5015725;28;20113;-87
2022/02/02 14:07:24;;;;;;;5.03;0.93;;;8.10;99.90;;;;;;5016287;28;20229;-87
2022/02/02 14:10:25;;;;;;;5.97;1.63;;;7.50;99.90;;;;;;5031014;28;20080;-88
2022/02/02 14:32:11;;;;;;;4.57;0.82;;;6.50;99.90;;;;;;5017067;28;20136;-90
2022/02/02 14:34:58;;;;;;;3.35;0.80;;;6.80;99.90;;;;;;5028795;28;20046;-91
2022/02/02 14:37:33;;;;;;;2.28;0.88;;;7.50;99.90;;;;;;5031876;28;20073;-90
2022/02/02 14:40:31;;;;;;;3.42;0.95;;;7.70;99.90;;;;;;5029681;28;20061;-90
2022/02/02 14:43:01;;;;;;;;;;;7.10;99.90;;;;;;5032062;28;20053;-89
2022/02/02 14:45:30;;;;;;;3.97;0.73;;;6.80;99.90;;;;;;5030881;28;20358;-91
2022/02/02 14:48:05;;;;;;;3.75;0.80;;;6.50;99.90;;;;;;5031652;28;20133;-90
2022/02/02 14:50:48;;;;;;;4.07;1.02;;;6.40;99.90;;;;;;5031482;28;20049;-91
2022/02/02 14:56:47;;;;;;;7.97;1.17;;;6.00;99.90;;;;;;5015587;28;20046;-91
2022/02/02 15:31:55;;;;;;;4.50;1.50;;;5.20;99.90;;;;;;5001285;28;20060;-89
2022/02/02 15:34:37;;;;;;;5.40;1.55;;;5.30;99.90;;;;;;5029800;28;20487;-89
2022/02/02 15:39:42;;;;;;;6.18;1.40;;;5.30;99.90;;;;;;5014465;28;20050;-88
2022/02/02 15:54:40;;;;;;;15.82;4.05;;;5.10;99.90;;;;;;5014421;28;20053;-90
2022/02/02 15:58:29;;;;;;;11.32;1.88;;;4.50;99.90;;;;;;5013412;28;20061;-90
2022/02/02 16:03:38;;;;;;;11.02;3.65;;;4.40;99.90;;;;;;5013891;28;20052;-89
2022/02/02 16:08:44;;;;;;;7.82;1.67;;;4.30;99.90;;;;;;5013680;28;20070;-90
2022/02/02 16:19:18;;;;;;;9.50;1.55;;;4.30;99.90;;;;;;5012727;28;20075;-88
2022/02/02 16:25:02;;;;;;;10.95;2.10;;;4.20;99.90;;;;;;5013283;28;20136;-89
2022/02/02 16:36:01;;;;;;;7.28;2.55;;;3.90;99.90;;;;;;5012605;28;20229;-88
2022/02/02 16:38:34;;;;;;;8.83;1.93;;;3.90;99.90;;;;;;5028321;28;20046;-89
2022/02/02 16:41:06;;;;;;;13.13;4.00;;;3.90;99.90;;;;;;5028237;28;20664;-89
2022/02/02 16:43:33;;;;;;;14.25;3.72;;;3.90;99.90;;;;;;5028121;28;20072;-89
2022/02/02 16:46:00;;;;;;;10.75;2.63;;;3.80;99.90;;;;;;5028436;28;20054;-88
2022/02/02 16:48:27;;;;;;;5.53;1.40;;;3.80;99.90;;;;;;5028454;28;20498;-89
2022/02/02 16:50:56;;;;;;;8.98;1.70;;;3.70;99.90;;;;;;5028345;28;20132;-89
2022/02/02 16:53:46;;;;;;;12.10;2.58;;;3.60;99.90;;;;;;5028401;28;20053;-89
2022/02/02 16:56:26;;;;;;;11.05;2.83;;;3.50;99.90;;;;;;5028173;28;20145;-88
2022/02/02 17:29:51;;;;;;;6.40;1.38;;;3.60;99.90;;;;;;5016323;28;20095;-88
2022/02/02 17:35:03;;;;;;;7.53;1.40;;;3.50;99.90;;;;;;5016292;28;20512;-90
2022/02/02 17:40:33;;;;;;;6.85;1.73;;;3.40;99.90;;;;;;5016293;28;20060;-88
2022/02/02 17:43:16;;;;;;;9.18;1.95;;;3.50;99.90;;;;;;5032766;28;20498;-88
2022/02/02 17:45:54;;;;;;;6.88;1.50;;;3.50;99.90;;;;;;5031879;28;20089;-88
2022/02/02 18:19:05;;;;;;;10.35;1.95;;;3.90;99.90;;;;;;5015294;28;20060;-88
2022/02/02 18:21:33;;;;;;;13.32;3.22;;;3.90;99.90;;;;;;5030501;28;20050;-87
2022/02/02 18:26:40;;;;;;;10.00;2.47;;;4.00;99.90;;;;;;5014959;28;20104;-88
2022/02/02 18:43:00;;;;;;;7.82;1.60;;;4.00;99.90;;;;;;5015181;28;20045;-88
2022/02/02 18:50:28;;;;;;;5.50;1.65;;;3.90;99.90;;;;;;5004417;28;20057;-87
2022/02/02 19:00:55;;;;;;;14.95;3.72;;;3.70;99.90;;;;;;5014526;28;20558;-88
2022/02/02 19:56:47;;;;;;;16.88;5.85;;;2.20;99.90;;;;;;5013545;28;20101;-88
2022/02/02 20:02:38;;;;;;;20.38;6.47;;;2.00;99.90;;;;;;5013497;28;20049;-88
2022/02/02 20:07:53;;;;;;;19.08;6.80;;;2.10;99.90;;;;;;5014141;28;20537;-87
2022/02/02 20:12:51;;;;;;;20.40;6.95;;;2.20;99.90;;;;;;5014028;28;20049;-88
2022/02/02 20:15:18;;;;;;;17.92;6.63;;;2.30;99.90;;;;;;5029120;28;20574;-88
2022/02/02 20:17:46;;;;;;;17.55;5.93;;;2.40;99.90;;;;;;5029226;28;20132;-88
2022/02/02 20:20:16;;;;;;;15.50;5.55;;;2.40;99.90;;;;;;5029178;28;20046;-88
2022/02/02 20:22:43;;;;;;;11.13;5.43;;;2.40;99.90;;;;;;5029212;28;20136;-88
2022/02/02 20:25:12;;;;;;;15.23;5.47;;;2.40;99.90;;;;;;5028705;28;20054;-88
2022/02/02 20:27:40;;;;;;;13.43;3.90;;;2.40;99.90;;;;;;5028921;28;20056;-88
2022/02/02 20:30:10;;;;;;;15.20;4.28;;;2.40;99.90;;;;;;5028690;28;20081;-88
2022/02/02 20:32:37;;;;;;;10.10;3.63;;;2.40;99.90;;;;;;5028955;28;20478;-88
2022/02/02 20:35:05;;;;;;;13.48;3.50;;;2.30;99.90;;;;;;5028176;28;20054;-88
2022/02/02 20:37:32;;;;;;;9.38;3.50;;;2.30;99.90;;;;;;5029209;28;20421;-88
2022/02/02 20:40:03;;;;;;;10.93;3.75;;;2.30;99.90;;;;;;5027076;28;20490;-88
2022/02/02 20:42:42;;;;;;;16.85;3.85;;;2.30;99.90;;;;;;5028545;28;20054;-88
2022/02/02 21:07:01;;;;;;;16.77;4.20;;;1.50;99.90;;;;;;5017217;28;20141;-88
2022/02/02 21:14:41;;;;;;;18.13;3.75;;;1.30;99.90;;;;;;5017137;28;20049;-88
2022/02/02 21:17:17;;;;;;;13.73;3.58;;;1.20;99.90;;;;;;5032208;28;20054;-88
2022/02/02 21:20:31;;;;;;;11.38;2.92;;;1.20;99.90;;;;;;5032120;28;20050;-88
2022/02/02 21:22:46;;;;;;;15.30;4.43;;;1.10;99.90;;;;;;5009441;28;20145;-88
2022/02/02 21:28:02;;;;;;;15.57;4.13;;;1.00;99.90;;;;;;5016979;28;20145;-88
2022/02/02 21:30:31;;;;;;;17.55;5.18;;;1.00;99.90;;;;;;5032485;28;20490;-89
2022/02/02 21:32:58;;;;;;;20.60;6.03;;;1.10;99.90;;;;;;5032298;28;20632;-88
2022/02/02 21:35:26;;;;;;;16.15;5.70;;;1.20;99.90;;;;;;5032102;28;20046;-88
2022/02/02 21:38:01;;;;;;;20.42;5.90;;;1.20;99.90;;;;;;5032085;28;20145;-87
2022/02/02 21:40:29;;;;;;;19.73;6.10;;;1.30;99.90;;;;;;5032261;28;20132;-88
2022/02/02 21:42:57;;;;;;;18.63;5.20;;;1.30;99.90;;;;;;5032649;28;20056;-88
2022/02/02 21:45:27;;;;;;;19.70;5.03;;;1.30;99.90;;;;;;5031820;28;20140;-88
2022/02/02 21:47:55;;;;;;;18.95;5.07;;;1.20;99.90;;;;;;5032145;28;20050;-88
2022/02/02 21:50:22;;;;;;;17.38;5.65;;;1.10;99.90;;;;;;5031360;28;20041;-88
2022/02/02 21:52:50;;;;;;;15.48;4.88;;;1.10;99.90;;;;;;5031539;28;20052;-88
2022/02/02 21:55:18;;;;;;;12.35;4.88;;;1.10;99.90;;;;;;5031143;28;20582;-88
2022/02/02 21:57:45;;;;;;;20.23;4.97;;;1.00;99.90;;;;;;5031164;28;20057;-88
2022/02/02 22:00:13;;;;;;;20.00;5.78;;;1.00;99.90;;;;;;5031579;28;20092;-88
2022/02/02 22:02:41;;;;;;;13.85;4.30;;;1.00;99.90;;;;;;5031907;28;20141;-88
2022/02/02 22:05:09;;;;;;;14.95;4.28;;;0.90;99.90;;;;;;5031082;28;20077;-88
2022/02/02 22:07:36;;;;;;;14.25;4.40;;;0.80;99.90;;;;;;5031448;28;20073;-89
2022/02/02 22:10:06;;;;;;;13.55;4.20;;;0.80;99.90;;;;;;5031165;28;20072;-87
2022/02/02 22:12:36;;;;;;;20.10;4.47;;;0.70;99.90;;;;;;5027878;28;20052;-89
2022/02/02 22:15:11;;;;;;;14.20;4.45;;;0.70;99.90;;;;;;5015773;28;20581;-88
2022/02/02 22:17:42;;;;;;;19.58;4.28;;;0.60;99.90;;;;;;5013100;28;20081;-88
2022/02/02 22:20:12;;;;;;;16.38;4.22;;;0.60;99.90;;;;;;5030946;28;20046;-89
2022/02/02 22:22:41;;;;;;;14.50;3.72;;;0.70;99.90;;;;;;5031154;28;20069;-88
2022/02/02 22:25:08;;;;;;;14.93;3.20;;;0.70;99.90;;;;;;5031277;28;20053;-89
2022/02/02 22:27:36;;;;;;;14.23;4.05;;;0.70;99.90;;;;;;5030748;28;20053;-88
2022/02/02 22:30:04;;;;;;;14.27;3.45;;;0.60;99.90;;;;;;5031103;28;20132;-88
2022/02/02 22:32:31;;;;;;;14.68;3.63;;;0.60;99.90;;;;;;5031138;28;20053;-87
2022/02/02 22:34:59;;;;;;;15.45;3.58;;;0.50;99.90;;;;;;5030842;28;20042;-88
2022/02/02 22:37:27;;;;;;;14.85;3.13;;;0.40;99.90;;;;;;5031154;28;20514;-88
2022/02/02 22:39:53;;;;;;;14.80;3.10;;;0.30;99.90;;;;;;5031015;28;20058;-88
2022/02/02 22:42:22;;;;;;;12.43;3.00;;;0.30;99.90;;;;;;5030971;28;20054;-88
2022/02/02 22:44:52;;;;;;;11.85;3.75;;;0.30;99.90;;;;;;5030924;28;20050;-89
2022/02/02 22:47:21;;;;;;;15.45;3.50;;;0.40;99.90;;;;;;5031145;28;20487;-88
2022/02/02 22:49:51;;;;;;;17.05;2.88;;;0.40;99.90;;;;;;5031143;28;20380;-88
2022/02/02 22:52:19;;;;;;;14.85;3.10;;;0.30;99.90;;;;;;5031141;28;20345;-88
2022/02/02 22:54:47;;;;;;;11.35;3.08;;;0.20;99.90;;;;;;5030881;28;20550;-88
2022/02/02 22:57:14;;;;;;;18.23;3.45;;;0.10;99.90;;;;;;5030888;28;20049;-88
2022/02/02 22:59:45;;;;;;;12.55;3.53;;;0.10;99.90;;;;;;5030818;28;20081;-88
2022/02/02 23:04:47;;;;;;;13.40;3.15;;;0.00;99.90;;;;;;5015475;28;20045;-88
2022/02/02 23:07:14;;;;;;;12.15;2.88;;;-0.20;99.90;;;;;;5030758;28;20060;-88
2022/02/02 23:09:43;;;;;;;8.68;3.25;;;-0.30;99.90;;;;;;5030737;28;20046;-88
2022/02/02 23:12:11;;;;;;;6.53;2.70;;;-0.40;99.90;;;;;;5030972;28;20132;-88
2022/02/02 23:14:41;;;;;;;9.95;3.00;;;-0.40;99.90;;;;;;5030657;28;20052;-89
2022/02/02 23:17:09;;;;;;;14.57;3.63;;;-0.50;99.90;;;;;;5015132;28;20487;-88
2022/02/02 23:19:39;;;;;;;12.20;2.95;;;-0.50;99.90;;;;;;5030313;28;20125;-88
2022/02/02 23:22:09;;;;;;;13.00;3.53;;;-0.50;99.90;;;;;;5030082;28;20046;-88
2022/02/02 23:24:38;;;;;;;13.15;3.38;;;-0.50;99.90;;;;;;5030062;28;20054;-88
2022/02/02 23:27:10;;;;;;;10.05;3.05;;;-0.60;99.90;;;;;;5030471;28;20053;-88
2022/02/02 23:29:47;;;;;;;12.43;3.30;;;-0.70;99.90;;;;;;5030351;28;20057;-88
2022/02/02 23:32:17;;;;;;;9.75;3.00;;;-0.80;99.90;;;;;;5030370;28;20487;-88
2022/02/02 23:34:44;;;;;;;15.88;3.25;;;-0.80;99.90;;;;;;5029942;28;20113;-88